createdAt,value
2018-07-17T00:00:12.810Z,4.47
2018-07-17T00:02:40.444Z,3.97
2018-07-17T00:05:08.963Z,4.70
2018-07-17T00:07:36.956Z,5.00
2018-07-17T00:10:05.041Z,4.80
2018-07-17T00:12:32.725Z,5.00
2018-07-17T00:15:00.480Z,5.73
2018-07-17T00:17:28.099Z,5.73
2018-07-17T00:19:55.818Z,4.63
2018-07-17T00:22:23.497Z,4.30
2018-07-17T00:24:51.080Z,5.00
2018-07-17T00:27:18.826Z,5.20
2018-07-17T00:29:46.518Z,4.87
2018-07-17T00:32:14.318Z,5.90
2018-07-17T00:34:41.998Z,5.77
2018-07-17T00:37:09.629Z,4.70
2018-07-17T00:39:37.295Z,4.93
2018-07-17T00:42:04.850Z,5.07
2018-07-17T00:44:32.539Z,4.53
2018-07-17T00:47:00.134Z,5.03
2018-07-17T00:49:27.741Z,5.23
2018-07-17T00:51:55.427Z,5.23
2018-07-17T00:54:23.085Z,5.27
2018-07-17T00:56:50.753Z,5.57
2018-07-17T00:59:18.416Z,5.50
2018-07-17T01:01:51.806Z,4.50
2018-07-17T01:04:25.362Z,5.33
2018-07-17T01:06:58.882Z,4.80
2018-07-17T01:09:32.398Z,4.53
2018-07-17T01:12:05.954Z,5.60
2018-07-17T01:14:36.864Z,4.10
2018-07-17T01:17:04.697Z,5.10
2018-07-17T01:19:32.367Z,4.53
2018-07-17T01:22:00.015Z,5.00
2018-07-17T01:24:27.651Z,4.63
2018-07-17T01:26:55.313Z,4.20
2018-07-17T01:29:22.915Z,5.10
2018-07-17T01:31:50.536Z,4.70
2018-07-17T01:34:18.121Z,4.83
2018-07-17T01:36:45.737Z,6.30
2018-07-17T01:39:13.378Z,4.33
2018-07-17T01:41:40.986Z,4.63
2018-07-17T01:44:08.602Z,4.77
2018-07-17T01:46:36.369Z,4.43
2018-07-17T01:49:04.072Z,5.10
2018-07-17T01:51:31.696Z,4.90
2018-07-17T01:53:59.351Z,4.60
2018-07-17T01:56:27.006Z,4.93
2018-07-17T01:58:54.568Z,5.97
2018-07-17T02:01:22.138Z,4.20
2018-07-17T02:03:49.737Z,5.17
2018-07-17T02:06:17.377Z,4.60
2018-07-17T02:08:44.981Z,5.57
2018-07-17T02:11:12.621Z,5.23
2018-07-17T02:13:40.245Z,5.63
2018-07-17T02:16:07.846Z,5.10
2018-07-17T02:18:35.493Z,5.10
2018-07-17T02:21:03.099Z,5.93
2018-07-17T02:23:30.797Z,4.87
2018-07-17T02:25:58.466Z,5.87
2018-07-17T02:28:26.090Z,5.90
2018-07-17T02:30:53.747Z,5.10
2018-07-17T02:33:21.446Z,6.83
2018-07-17T02:35:49.124Z,6.53
2018-07-17T02:38:16.750Z,7.33
2018-07-17T02:40:44.411Z,6.20
2018-07-17T02:43:12.048Z,6.50
2018-07-17T02:45:39.696Z,6.20
2018-07-17T02:48:07.338Z,6.33
2018-07-17T02:50:35.077Z,6.00
2018-07-17T02:53:02.745Z,6.43
2018-07-17T02:55:30.348Z,6.33
2018-07-17T02:57:57.939Z,6.17
2018-07-17T03:00:25.543Z,6.53
2018-07-17T03:02:53.217Z,6.17
2018-07-17T03:05:20.869Z,6.07
2018-07-17T03:07:48.503Z,5.60
2018-07-17T03:10:22.930Z,7.00
2018-07-17T03:12:50.576Z,5.97
2018-07-17T03:15:18.180Z,6.60
2018-07-17T03:17:45.793Z,6.33
2018-07-17T03:20:13.433Z,6.80
2018-07-17T03:22:41.215Z,6.80
2018-07-17T03:25:09.009Z,6.00
2018-07-17T03:27:36.669Z,6.80
2018-07-17T03:30:04.934Z,5.67
2018-07-17T03:32:32.553Z,6.23
2018-07-17T03:35:00.213Z,5.87
2018-07-17T03:37:27.849Z,6.70
2018-07-17T03:39:55.515Z,6.20
2018-07-17T03:42:23.119Z,6.70
2018-07-17T03:44:50.799Z,6.50
2018-07-17T03:47:18.459Z,6.23
2018-07-17T03:49:46.103Z,5.83
2018-07-17T03:52:13.701Z,6.13
2018-07-17T03:54:41.513Z,6.63
2018-07-17T03:57:09.145Z,6.70
2018-07-17T03:59:36.766Z,5.53
2018-07-17T04:02:04.433Z,6.27
2018-07-17T04:04:32.133Z,6.90
2018-07-17T04:06:59.794Z,6.30
2018-07-17T04:09:27.402Z,6.50
2018-07-17T04:11:56.204Z,7.23
2018-07-17T04:14:23.844Z,7.20
2018-07-17T04:16:54.596Z,5.93
2018-07-17T04:19:23.082Z,7.20
2018-07-17T04:21:51.285Z,7.00
2018-07-17T04:24:19.733Z,6.90
2018-07-17T04:26:47.384Z,6.80
2018-07-17T04:29:15.060Z,6.27
2018-07-17T04:31:42.696Z,6.97
2018-07-17T04:34:10.338Z,7.43
2018-07-17T04:36:38.010Z,6.50
2018-07-17T04:39:08.671Z,6.60
2018-07-17T04:41:36.639Z,7.13
2018-07-17T04:44:04.321Z,7.00
2018-07-17T04:46:32.033Z,6.53
2018-07-17T04:48:59.613Z,6.60
2018-07-17T04:51:27.319Z,6.27
2018-07-17T04:53:54.988Z,6.50
2018-07-17T04:56:22.628Z,7.07
2018-07-17T04:58:50.196Z,6.33
2018-07-17T05:01:17.813Z,6.87
2018-07-17T05:03:45.505Z,6.90
2018-07-17T05:06:13.181Z,7.30
2018-07-17T05:08:40.811Z,6.90
2018-07-17T05:11:08.447Z,7.17
2018-07-17T05:13:36.061Z,6.57
2018-07-17T05:16:03.778Z,7.50
2018-07-17T05:18:31.354Z,7.33
2018-07-17T05:20:58.986Z,7.40
2018-07-17T05:23:26.583Z,7.33
2018-07-17T05:25:54.233Z,7.80
2018-07-17T05:28:21.891Z,6.60
2018-07-17T05:30:49.623Z,7.70
2018-07-17T05:33:17.246Z,7.50
2018-07-17T05:35:44.891Z,8.03
2018-07-17T05:38:12.539Z,8.00
2018-07-17T05:40:40.185Z,7.63
2018-07-17T05:43:07.837Z,8.60
2018-07-17T05:45:35.448Z,8.57
2018-07-17T05:48:03.164Z,8.80
2018-07-17T05:50:30.841Z,8.30
2018-07-17T05:52:58.483Z,8.93
2018-07-17T05:55:26.154Z,8.87
2018-07-17T05:57:53.828Z,8.00
2018-07-17T06:00:21.524Z,9.00
2018-07-17T06:02:49.219Z,9.90
2018-07-17T06:05:16.900Z,9.30
2018-07-17T06:07:44.579Z,6.23
2018-07-17T06:10:12.211Z,8.20
2018-07-17T06:12:40.011Z,8.70
2018-07-17T06:15:07.704Z,8.60
2018-07-17T06:17:35.438Z,7.27
2018-07-17T06:20:03.180Z,8.40
2018-07-17T06:22:30.823Z,7.80
2018-07-17T06:24:58.490Z,7.77
2018-07-17T06:27:26.156Z,7.00
2018-07-17T06:29:54.032Z,7.30
2018-07-17T06:32:21.641Z,7.33
2018-07-17T06:34:49.290Z,8.60
2018-07-17T06:37:17.031Z,7.80
2018-07-17T06:39:45.359Z,8.70
2018-07-17T06:42:12.973Z,8.23
2018-07-17T06:44:40.638Z,7.70
2018-07-17T06:47:08.217Z,9.37
2018-07-17T06:49:35.810Z,9.00
2018-07-17T06:52:03.426Z,7.70
2018-07-17T06:54:31.003Z,7.70
2018-07-17T06:56:58.642Z,8.13
2018-07-17T06:59:26.366Z,7.80
2018-07-17T07:01:54.003Z,8.60
2018-07-17T07:04:21.630Z,7.97
2018-07-17T07:06:49.420Z,7.93
2018-07-17T07:09:17.495Z,7.07
2018-07-17T07:11:45.351Z,7.40
2018-07-17T07:14:13.001Z,8.43
2018-07-17T07:16:40.682Z,6.53
2018-07-17T07:19:08.299Z,7.37
2018-07-17T07:21:35.907Z,6.53
2018-07-17T07:24:03.587Z,7.87
2018-07-17T07:26:31.277Z,6.93
2018-07-17T07:28:58.978Z,5.90
2018-07-17T07:31:26.671Z,5.87
2018-07-17T07:33:54.385Z,6.50
2018-07-17T07:36:22.059Z,6.57
2018-07-17T07:38:49.687Z,5.57
2018-07-17T07:41:17.296Z,5.90
2018-07-17T07:43:45.011Z,7.07
2018-07-17T07:46:12.666Z,6.53
2018-07-17T07:48:40.281Z,5.17
2018-07-17T07:51:08.017Z,5.27
2018-07-17T07:53:35.695Z,5.27
2018-07-17T07:56:03.361Z,5.40
2018-07-17T07:58:31.005Z,6.00
2018-07-17T08:00:58.650Z,6.07
2018-07-17T08:03:26.264Z,5.90
2018-07-17T08:05:53.958Z,5.30
2018-07-17T08:08:21.692Z,5.50
2018-07-17T08:10:49.348Z,6.40
2018-07-17T08:13:17.061Z,6.47
2018-07-17T08:15:44.701Z,5.10
2018-07-17T08:18:12.318Z,5.60
2018-07-17T08:20:40.064Z,6.83
2018-07-17T08:23:07.931Z,5.50
2018-07-17T08:25:35.630Z,5.63
2018-07-17T08:28:03.445Z,6.30
2018-07-17T08:30:31.139Z,6.97
2018-07-17T08:32:58.818Z,5.73
2018-07-17T08:35:26.450Z,5.50
2018-07-17T08:37:54.079Z,6.27
2018-07-17T08:40:21.745Z,6.20
2018-07-17T08:42:49.406Z,6.13
2018-07-17T08:45:17.062Z,7.00
2018-07-17T08:47:44.694Z,6.80
2018-07-17T08:50:12.350Z,6.87
2018-07-17T08:52:40.003Z,6.67
2018-07-17T08:55:07.745Z,7.03
2018-07-17T08:57:35.586Z,6.97
2018-07-17T09:00:03.850Z,6.10
2018-07-17T09:02:31.510Z,5.70
2018-07-17T09:04:59.179Z,5.97
2018-07-17T09:07:28.925Z,6.00
2018-07-17T09:09:56.554Z,5.80
2018-07-17T09:12:24.280Z,5.60
2018-07-17T09:14:51.968Z,6.03
2018-07-17T09:17:19.620Z,6.20
2018-07-17T09:19:47.282Z,6.23
2018-07-17T09:22:14.924Z,5.30
2018-07-17T09:24:42.646Z,5.10
2018-07-17T09:27:10.728Z,5.40
2018-07-17T09:29:38.482Z,5.37
2018-07-17T09:32:06.125Z,4.60
2018-07-17T09:34:33.749Z,4.90
2018-07-17T09:37:01.594Z,5.27
2018-07-17T09:39:29.367Z,5.30
2018-07-17T09:41:57.125Z,5.07
2018-07-17T09:44:24.962Z,4.73
2018-07-17T09:46:52.594Z,4.87
2018-07-17T09:49:20.613Z,3.83
2018-07-17T09:51:48.299Z,4.90
2018-07-17T09:54:16.021Z,5.03
2018-07-17T09:56:43.644Z,4.30
2018-07-17T09:59:11.359Z,4.60
2018-07-17T10:01:44.787Z,4.97
2018-07-17T10:04:12.530Z,4.20
2018-07-17T10:06:40.234Z,4.50
2018-07-17T10:09:07.885Z,4.17
2018-07-17T10:11:35.658Z,4.70
2018-07-17T10:14:03.368Z,4.40
2018-07-17T10:16:31.074Z,4.80
2018-07-17T10:18:58.750Z,4.10
2018-07-17T10:21:26.474Z,3.80
2018-07-17T10:23:54.371Z,4.73
2018-07-17T10:26:22.074Z,4.10
2018-07-17T10:28:49.700Z,4.80
2018-07-17T10:31:17.398Z,4.87
2018-07-17T10:33:45.011Z,5.20
2018-07-17T10:36:12.734Z,5.30
2018-07-17T10:38:40.541Z,4.67
2018-07-17T10:41:08.134Z,5.37
2018-07-17T10:43:35.728Z,5.63
2018-07-17T10:46:03.546Z,4.77
2018-07-17T10:48:31.344Z,5.30
2018-07-17T10:50:59.173Z,5.17
2018-07-17T10:53:26.828Z,4.77
2018-07-17T10:55:54.562Z,3.97
2018-07-17T10:58:22.298Z,4.43
2018-07-17T11:00:50.045Z,5.07
2018-07-17T11:03:17.720Z,4.20
2018-07-17T11:05:45.382Z,4.93
2018-07-17T11:08:13.186Z,4.10
2018-07-17T11:10:40.874Z,5.40
2018-07-17T11:13:08.555Z,4.83
2018-07-17T11:15:36.243Z,4.60
2018-07-17T11:18:03.891Z,4.30
2018-07-17T11:20:31.511Z,3.90
2018-07-17T11:22:59.139Z,4.90
2018-07-17T11:25:26.896Z,5.07
2018-07-17T11:27:54.583Z,5.00
2018-07-17T11:30:22.245Z,4.67
2018-07-17T11:32:49.895Z,4.77
2018-07-17T11:35:17.495Z,5.53
2018-07-17T11:37:45.147Z,5.57
2018-07-17T11:40:12.883Z,6.00
2018-07-17T11:42:40.573Z,4.93
2018-07-17T11:45:08.416Z,5.53
2018-07-17T11:47:36.072Z,5.53
2018-07-17T11:50:04.314Z,4.77
2018-07-17T11:52:31.985Z,6.40
2018-07-17T11:54:59.675Z,5.27
2018-07-17T11:57:27.244Z,5.00
2018-07-17T11:59:54.909Z,4.90
2018-07-17T12:02:22.603Z,5.03
2018-07-17T12:04:50.213Z,6.33
2018-07-17T12:07:17.903Z,5.43
2018-07-17T12:09:45.791Z,4.93
2018-07-17T12:12:13.404Z,5.53
2018-07-17T12:14:41.819Z,4.43
2018-07-17T12:17:09.486Z,4.93
2018-07-17T12:19:37.631Z,4.03
2018-07-17T12:22:05.266Z,5.00
2018-07-17T12:24:32.985Z,5.07
2018-07-17T12:27:01.312Z,3.97
2018-07-17T12:29:29.011Z,3.90
2018-07-17T12:31:56.672Z,4.13
2018-07-17T12:34:26.138Z,3.60
2018-07-17T12:36:54.893Z,3.60
2018-07-17T12:39:22.578Z,3.90
2018-07-17T12:41:50.212Z,3.40
2018-07-17T12:44:17.930Z,2.90
2018-07-17T12:46:45.479Z,2.60
2018-07-17T12:49:13.108Z,2.77
2018-07-17T12:51:40.749Z,3.57
2018-07-17T12:54:08.437Z,2.97
2018-07-17T12:56:36.084Z,2.90
2018-07-17T12:59:03.836Z,2.57
2018-07-17T13:01:31.403Z,3.17
2018-07-17T13:03:59.007Z,3.63
2018-07-17T13:06:26.621Z,3.00
2018-07-17T13:08:54.309Z,2.80
2018-07-17T13:11:21.965Z,2.80
2018-07-17T13:13:49.585Z,3.23
2018-07-17T13:16:17.350Z,4.00
2018-07-17T13:18:45.026Z,3.20
2018-07-17T13:21:12.704Z,2.70
2018-07-17T13:23:40.385Z,2.50
2018-07-17T13:26:08.175Z,3.10
2018-07-17T13:28:35.948Z,2.90
2018-07-17T13:31:03.852Z,3.30
2018-07-17T13:33:31.524Z,2.63
2018-07-17T13:35:59.201Z,3.07
2018-07-17T13:38:26.982Z,2.80
2018-07-17T13:40:54.627Z,3.00
2018-07-17T13:43:22.459Z,3.10
2018-07-17T13:45:50.085Z,2.53
2018-07-17T13:48:18.060Z,3.20
2018-07-17T13:50:45.764Z,3.10
2018-07-17T13:53:13.455Z,3.50
2018-07-17T13:55:41.274Z,2.83
2018-07-17T13:58:08.959Z,3.30
2018-07-17T14:00:36.710Z,3.37
2018-07-17T14:03:04.512Z,2.70
2018-07-17T14:05:32.170Z,3.10
2018-07-17T14:07:59.850Z,3.17
2018-07-17T14:10:27.659Z,3.27
2018-07-17T14:12:55.335Z,3.30
2018-07-17T14:15:23.039Z,3.50
2018-07-17T14:17:50.682Z,3.10
2018-07-17T14:20:18.390Z,3.30
2018-07-17T14:22:46.097Z,3.30
2018-07-17T14:25:13.766Z,3.37
2018-07-17T14:27:43.526Z,3.03
2018-07-17T14:30:11.758Z,3.30
2018-07-17T14:32:39.396Z,3.13
2018-07-17T14:35:07.082Z,3.10
2018-07-17T14:37:34.736Z,2.60
2018-07-17T14:40:02.448Z,2.70
2018-07-17T14:42:30.197Z,2.30
2018-07-17T14:44:57.903Z,3.40
2018-07-17T14:47:25.620Z,2.43
2018-07-17T14:49:53.255Z,2.63
2018-07-17T14:52:21.001Z,2.83
2018-07-17T14:54:48.633Z,2.97
2018-07-17T14:57:16.301Z,2.60
2018-07-17T14:59:43.905Z,1.73
2018-07-17T15:02:11.705Z,2.70
2018-07-17T15:04:39.322Z,2.50
2018-07-17T15:07:06.946Z,2.27
2018-07-17T15:09:34.621Z,2.37
2018-07-17T15:12:02.341Z,2.13
2018-07-17T15:14:30.110Z,2.50
2018-07-17T15:16:57.810Z,2.43
2018-07-17T15:19:25.508Z,2.37
2018-07-17T15:21:53.638Z,2.50
2018-07-17T15:24:21.261Z,2.40
2018-07-17T15:26:48.902Z,2.27
2018-07-17T15:29:16.556Z,2.97
2018-07-17T15:31:44.155Z,2.83
2018-07-17T15:34:11.758Z,2.57
2018-07-17T15:36:39.458Z,3.80
2018-07-17T15:39:08.999Z,2.93
2018-07-17T15:41:36.651Z,3.47
2018-07-17T15:44:04.365Z,3.63
2018-07-17T15:46:32.100Z,3.30
2018-07-17T15:48:59.717Z,3.30
2018-07-17T15:51:27.416Z,3.80
2018-07-17T15:53:55.305Z,3.47
2018-07-17T15:56:22.952Z,3.43
2018-07-17T15:58:51.289Z,3.80
2018-07-17T16:01:19.048Z,3.13
2018-07-17T16:03:46.721Z,3.10
2018-07-17T16:06:14.538Z,3.03
2018-07-17T16:08:42.138Z,3.30
2018-07-17T16:11:09.921Z,3.70
2018-07-17T16:13:37.692Z,3.10
2018-07-17T16:16:05.248Z,3.43
2018-07-17T16:18:32.853Z,3.30
2018-07-17T16:21:00.549Z,3.30
2018-07-17T16:23:28.315Z,3.50
2018-07-17T16:25:56.046Z,3.50
2018-07-17T16:28:23.777Z,3.17
2018-07-17T16:30:51.673Z,3.60
2018-07-17T16:33:19.376Z,3.43
2018-07-17T16:35:47.076Z,3.30
2018-07-17T16:38:14.714Z,3.67
2018-07-17T16:40:42.365Z,3.37
2018-07-17T16:43:10.036Z,3.93
2018-07-17T16:45:37.715Z,3.37
2018-07-17T16:48:05.564Z,3.57
2018-07-17T16:50:33.482Z,3.20
2018-07-17T16:53:01.246Z,3.20
2018-07-17T16:55:28.879Z,3.53
2018-07-17T16:57:56.616Z,3.10
2018-07-17T17:00:24.302Z,3.27
2018-07-17T17:02:51.974Z,3.50
2018-07-17T17:05:19.605Z,3.50
2018-07-17T17:07:47.265Z,3.57
2018-07-17T17:10:14.932Z,3.83
2018-07-17T17:12:42.590Z,3.20
2018-07-17T17:15:10.243Z,3.97
2018-07-17T17:17:39.117Z,3.03
2018-07-17T17:20:06.767Z,3.00
2018-07-17T17:22:34.441Z,3.40
2018-07-17T17:25:02.175Z,3.23
2018-07-17T17:27:29.822Z,3.27
2018-07-17T17:29:57.497Z,3.50
2018-07-17T17:32:25.279Z,3.20
2018-07-17T17:34:52.993Z,4.03
2018-07-17T17:37:20.660Z,4.00
2018-07-17T17:39:48.413Z,3.97
2018-07-17T17:42:16.019Z,3.67
2018-07-17T17:44:43.666Z,4.43
2018-07-17T17:47:11.304Z,4.00
2018-07-17T17:49:39.078Z,4.20
2018-07-17T17:52:07.447Z,3.40
2018-07-17T17:54:35.378Z,3.33
2018-07-17T17:57:03.205Z,3.37
2018-07-17T17:59:30.844Z,3.13
2018-07-17T18:01:58.481Z,3.73
2018-07-17T18:04:26.066Z,4.13
2018-07-17T18:06:53.890Z,3.33
2018-07-17T18:09:21.557Z,3.93
2018-07-17T18:11:49.219Z,3.60
2018-07-17T18:14:16.887Z,3.50
2018-07-17T18:16:44.565Z,3.80
2018-07-17T18:19:12.270Z,3.87
2018-07-17T18:21:40.021Z,3.87
2018-07-17T18:24:07.943Z,4.60
2018-07-17T18:26:35.585Z,3.80
2018-07-17T18:29:03.439Z,4.33
2018-07-17T18:31:31.107Z,4.30
2018-07-17T18:33:58.796Z,3.77
2018-07-17T18:36:26.466Z,3.50
2018-07-17T18:38:54.272Z,3.90
2018-07-17T18:41:21.926Z,4.17
2018-07-17T18:43:49.572Z,3.90
2018-07-17T18:46:17.250Z,16.30
2018-07-17T18:48:47.466Z,5.37
2018-07-17T18:51:15.701Z,6.20
2018-07-17T18:53:43.581Z,5.00
2018-07-17T18:56:11.688Z,5.40
2018-07-17T18:58:39.688Z,5.77
2018-07-17T19:01:07.503Z,7.77
2018-07-17T19:03:35.634Z,7.97
2018-07-17T19:06:03.533Z,47.70
2018-07-17T19:08:31.116Z,84.90
2018-07-17T19:10:58.909Z,35.80
2018-07-17T19:13:26.756Z,44.07
2018-07-17T19:15:55.420Z,7.97
2018-07-17T19:18:23.224Z,33.90
2018-07-17T19:20:51.088Z,11.10
2018-07-17T19:23:18.783Z,20.57
2018-07-17T19:25:46.507Z,19.47
2018-07-17T19:28:14.217Z,15.43
2018-07-17T19:30:42.146Z,8.13
2018-07-17T19:33:09.973Z,7.80
2018-07-17T19:35:37.788Z,8.20
2018-07-17T19:38:05.494Z,11.20
2018-07-17T19:40:33.410Z,7.80
2018-07-17T19:43:01.424Z,9.47
2018-07-17T19:45:29.370Z,6.47
2018-07-17T19:47:57.444Z,10.13
2018-07-17T19:50:25.594Z,9.60
2018-07-17T19:52:53.785Z,7.60
2018-07-17T19:55:21.441Z,8.37
2018-07-17T19:57:49.296Z,8.77
2018-07-17T20:00:17.024Z,9.10
2018-07-17T20:02:45.164Z,8.17
2018-07-17T20:05:12.947Z,7.57
2018-07-17T20:07:40.874Z,8.67
2018-07-17T20:10:08.601Z,7.90
2018-07-17T20:12:36.498Z,8.13
2018-07-17T20:15:04.412Z,8.17
2018-07-17T20:17:32.200Z,7.50
2018-07-17T20:20:00.241Z,8.50
2018-07-17T20:22:27.981Z,8.70
2018-07-17T20:24:55.676Z,8.83
2018-07-17T20:27:23.695Z,8.80
2018-07-17T20:29:51.341Z,8.63
2018-07-17T20:32:19.045Z,8.53
2018-07-17T20:34:46.818Z,7.63
2018-07-17T20:37:14.625Z,8.87
2018-07-17T20:39:42.350Z,8.60
2018-07-17T20:42:10.084Z,9.03
2018-07-17T20:44:37.790Z,9.87
2018-07-17T20:47:05.571Z,12.43
2018-07-17T20:49:33.278Z,9.60
2018-07-17T20:52:00.964Z,9.70
2018-07-17T20:54:28.650Z,9.50
2018-07-17T20:56:56.292Z,9.23
2018-07-17T20:59:24.053Z,8.27
2018-07-17T21:01:51.733Z,8.23
2018-07-17T21:04:19.527Z,7.70
2018-07-17T21:06:47.204Z,7.20
2018-07-17T21:09:14.918Z,7.23
2018-07-17T21:11:42.757Z,7.77
2018-07-17T21:14:10.459Z,9.80
2018-07-17T21:16:38.087Z,7.90
2018-07-17T21:19:05.902Z,9.80
2018-07-17T21:21:33.727Z,6.90
2018-07-17T21:24:01.431Z,7.53
2018-07-17T21:26:29.708Z,7.23
2018-07-17T21:28:57.403Z,11.53
2018-07-17T21:31:25.094Z,7.37
2018-07-17T21:33:52.766Z,7.80
2018-07-17T21:36:20.604Z,7.30
2018-07-17T21:38:48.271Z,9.77
2018-07-17T21:41:16.026Z,7.47
2018-07-17T21:43:43.688Z,7.17
2018-07-17T21:46:11.406Z,7.73
2018-07-17T21:48:39.049Z,7.80
2018-07-17T21:51:06.757Z,7.73
2018-07-17T21:53:34.452Z,8.17
2018-07-17T21:56:02.104Z,8.40
2018-07-17T21:58:29.772Z,7.50
2018-07-17T22:00:57.647Z,7.70
2018-07-17T22:03:25.321Z,9.40
2018-07-17T22:05:52.995Z,8.40
2018-07-17T22:08:20.638Z,7.73
2018-07-17T22:10:48.274Z,8.27
2018-07-17T22:13:15.860Z,7.77
2018-07-17T22:15:43.607Z,9.20
2018-07-17T22:18:11.383Z,7.60
2018-07-17T22:20:39.074Z,7.83
2018-07-17T22:23:06.803Z,7.50
2018-07-17T22:25:34.447Z,7.57
2018-07-17T22:28:02.152Z,7.03
2018-07-17T22:30:29.903Z,8.30
2018-07-17T22:32:57.476Z,8.83
2018-07-17T22:35:25.087Z,7.07
2018-07-17T22:37:52.674Z,9.00
2018-07-17T22:40:20.271Z,8.10
2018-07-17T22:42:47.829Z,7.60
2018-07-17T22:45:15.420Z,8.33
2018-07-17T22:47:43.057Z,8.07
2018-07-17T22:50:10.630Z,7.90
2018-07-17T22:52:38.252Z,9.20
2018-07-17T22:55:06.174Z,8.63
2018-07-17T22:57:33.746Z,8.13
2018-07-17T23:00:01.391Z,8.03
2018-07-17T23:02:29.005Z,8.47
2018-07-17T23:04:56.615Z,7.83
2018-07-17T23:07:24.214Z,9.10
2018-07-17T23:09:51.794Z,8.03
2018-07-17T23:12:19.427Z,8.33
2018-07-17T23:14:47.025Z,7.57
2018-07-17T23:17:16.498Z,7.70
2018-07-17T23:19:50.400Z,7.60
2018-07-17T23:22:26.973Z,8.33
2018-07-17T23:24:55.849Z,7.60
2018-07-17T23:27:23.421Z,7.67
2018-07-17T23:29:51.024Z,7.90
2018-07-17T23:32:18.620Z,7.10
2018-07-17T23:34:46.245Z,8.37
2018-07-17T23:37:13.848Z,7.37
2018-07-17T23:39:41.446Z,9.60
2018-07-17T23:42:08.999Z,8.07
2018-07-17T23:44:36.602Z,8.90
2018-07-17T23:47:04.605Z,9.33
2018-07-17T23:49:38.064Z,8.37
2018-07-17T23:52:06.303Z,9.60
2018-07-17T23:54:33.899Z,8.00
2018-07-17T23:57:01.621Z,9.00
2018-07-17T23:59:29.341Z,9.13
